Time;durP1;ratioP1;P1;durP2;ratioP2;P2;SDS_P1;SDS_P2;PMS_P1;PMS_P2;Temp;Humidity;BMP_temperature;BMP_pressure;BME280_temperature;BME280_humidity;BME280_pressure;Samples;Min_cycle;Max_cycle;Signal;HPM_P1;HPM_P2
2022/09/18 00:02:25;;;;;;;68.35;49.97;;;20.20;59.30;;;;;;4963314;28;89637;-64
2022/09/18 00:04:52;;;;;;;67.85;49.78;;;20.20;59.30;;;;;;4970537;28;89922;-65
2022/09/18 00:07:18;;;;;;;69.40;50.17;;;20.20;59.40;;;;;;4969815;28;91583;-62
2022/09/18 00:09:43;;;;;;;68.40;49.60;;;20.10;59.40;;;;;;4970931;28;90171;-64
2022/09/18 00:12:10;;;;;;;69.03;49.88;;;20.10;59.50;;;;;;4968751;28;92210;-64
2022/09/18 00:14:36;;;;;;;68.35;50.05;;;20.10;59.60;;;;;;4970855;28;89752;-64
2022/09/18 00:17:02;;;;;;;68.57;49.85;;;20.00;59.70;;;;;;4961006;28;89644;-64
2022/09/18 00:19:28;;;;;;;67.78;49.72;;;20.00;59.50;;;;;;4964650;28;91730;-64
2022/09/18 00:21:54;;;;;;;68.22;49.97;;;20.00;59.70;;;;;;4969746;28;90217;-62
2022/09/18 00:24:22;;;;;;;67.28;49.58;;;20.00;59.50;;;;;;4973047;28;88877;-64
2022/09/18 00:26:47;;;;;;;68.45;49.83;;;20.10;59.70;;;;;;4962112;28;94844;-65
2022/09/18 00:29:16;;;;;;;69.80;50.05;;;20.10;59.50;;;;;;4959997;28;90775;-65
2022/09/18 00:31:41;;;;;;;68.13;49.55;;;20.10;59.60;;;;;;4968415;28;92942;-64
2022/09/18 00:34:10;;;;;;;67.47;49.38;;;20.10;59.50;;;;;;4970393;28;90163;-64
2022/09/18 00:36:38;;;;;;;68.10;49.70;;;20.00;59.60;;;;;;4963672;28;90104;-63
2022/09/18 00:39:04;;;;;;;68.03;49.80;;;20.10;59.50;;;;;;4962032;28;90740;-62
2022/09/18 00:41:37;;;;;;;68.57;49.58;;;20.10;59.50;;;;;;4968134;28;89880;-64
2022/09/18 00:44:34;;;;;;;67.97;49.83;;;20.10;59.50;;;;;;4969766;28;90667;-61
2022/09/18 00:47:13;;;;;;;67.63;49.50;;;20.10;59.50;;;;;;4970509;28;90682;-65
2022/09/18 00:49:46;;;;;;;67.30;49.35;;;20.10;59.40;;;;;;4964843;28;89640;-61
2022/09/18 00:52:14;;;;;;;67.63;49.83;;;20.00;59.60;;;;;;4972257;28;89845;-64
2022/09/18 00:54:46;;;;;;;70.05;50.10;;;20.10;59.60;;;;;;4960523;28;89676;-65
2022/09/18 00:57:20;;;;;;;67.97;50.05;;;20.00;59.50;;;;;;4964144;28;90720;-63
2022/09/18 00:59:49;;;;;;;68.30;49.85;;;20.00;59.60;;;;;;4965482;28;91140;-65
2022/09/18 01:02:14;;;;;;;67.32;49.55;;;20.00;59.40;;;;;;4962425;28;89929;-65
2022/09/18 01:04:41;;;;;;;67.95;49.42;;;20.00;59.50;;;;;;4966422;28;89585;-64
2022/09/18 01:07:54;;;;;;;68.05;49.95;;;20.00;59.40;;;;;;4970921;28;89537;-64
2022/09/18 01:10:38;;;;;;;68.03;49.72;;;20.00;59.50;;;;;;4911901;28;89706;-64
2022/09/18 01:13:23;;;;;;;67.28;49.38;;;20.00;59.40;;;;;;4965846;28;94249;-64
2022/09/18 01:15:54;;;;;;;67.53;49.78;;;20.00;59.40;;;;;;4965558;28;90298;-64
2022/09/18 01:18:32;;;;;;;67.17;49.77;;;20.00;59.60;;;;;;4968180;28;90237;-64
2022/09/18 01:21:08;;;;;;;67.65;49.35;;;20.00;59.60;;;;;;4966486;28;91869;-65
2022/09/18 01:23:37;;;;;;;67.60;49.60;;;20.00;59.60;;;;;;4966607;28;91878;-60
2022/09/18 01:26:08;;;;;;;67.05;49.33;;;20.00;59.60;;;;;;4967361;28;90347;-62
2022/09/18 01:28:43;;;;;;;67.15;49.53;;;20.00;59.40;;;;;;4974056;28;91108;-63
2022/09/18 01:31:25;;;;;;;68.00;49.30;;;20.00;59.50;;;;;;4968016;28;90376;-61
2022/09/18 01:34:04;;;;;;;68.25;49.63;;;20.00;59.40;;;;;;4964541;28;90939;-64
2022/09/18 01:36:34;;;;;;;67.03;49.65;;;20.00;59.40;;;;;;4969133;28;94156;-64
2022/09/18 01:39:32;;;;;;;67.28;49.33;;;20.00;59.40;;;;;;4964254;28;90931;-65
2022/09/18 01:42:00;;;;;;;66.80;49.35;;;19.90;59.50;;;;;;4962245;28;88808;-64
2022/09/18 01:44:29;;;;;;;67.88;49.47;;;20.00;59.60;;;;;;4973011;28;90053;-64
2022/09/18 01:46:57;;;;;;;67.03;49.47;;;19.90;59.50;;;;;;4970925;28;91782;-65
2022/09/18 01:49:28;;;;;;;67.32;49.55;;;20.00;59.40;;;;;;4971985;28;92517;-65
2022/09/18 01:52:10;;;;;;;66.72;49.17;;;19.90;59.50;;;;;;4966982;28;90176;-65
2022/09/18 01:54:40;;;;;;;67.15;49.55;;;19.90;59.50;;;;;;4962709;28;90298;-64
2022/09/18 01:57:12;;;;;;;67.20;49.23;;;19.90;59.50;;;;;;4968247;28;90988;-63
2022/09/18 01:59:49;;;;;;;69.53;49.95;;;19.90;59.50;;;;;;4971457;28;93132;-64
2022/09/18 02:02:23;;;;;;;68.35;49.90;;;19.90;59.50;;;;;;4969410;28;90714;-59
2022/09/18 02:04:53;;;;;;;67.60;49.75;;;19.90;59.40;;;;;;4980481;28;89782;-64
2022/09/18 02:07:34;;;;;;;67.55;49.45;;;19.90;59.30;;;;;;4968644;28;92412;-64
2022/09/18 02:10:00;;;;;;;67.97;49.83;;;19.80;59.60;;;;;;4968099;28;95334;-63
2022/09/18 02:12:28;;;;;;;67.43;49.58;;;19.90;59.40;;;;;;4968955;28;90835;-65
2022/09/18 02:14:58;;;;;;;68.38;49.83;;;19.80;59.50;;;;;;4972651;28;94126;-64
2022/09/18 02:17:37;;;;;;;67.47;49.78;;;19.80;59.50;;;;;;4970063;28;89556;-65
2022/09/18 02:20:09;;;;;;;67.32;49.65;;;19.80;59.50;;;;;;4963806;28;90807;-61
2022/09/18 02:22:37;;;;;;;67.40;49.53;;;19.80;59.50;;;;;;4962248;28;89593;-64
2022/09/18 02:25:07;;;;;;;68.32;49.95;;;19.90;59.40;;;;;;4967933;28;89559;-61
2022/09/18 02:27:35;;;;;;;67.93;49.72;;;19.90;59.30;;;;;;4967598;28;92221;-59
2022/09/18 02:30:03;;;;;;;67.63;49.58;;;19.90;59.20;;;;;;4970737;28;90612;-64
2022/09/18 02:32:29;;;;;;;67.47;49.42;;;19.90;59.20;;;;;;4970208;28;93323;-64
2022/09/18 02:34:55;;;;;;;67.65;49.75;;;19.80;59.40;;;;;;4968037;28;92026;-64
2022/09/18 02:37:41;;;;;;;69.05;49.72;;;19.80;59.40;;;;;;4973588;28;90505;-65
2022/09/18 02:40:37;;;;;;;67.20;49.33;;;19.80;59.30;;;;;;4971732;28;91495;-65
2022/09/18 02:43:06;;;;;;;66.68;49.22;;;19.90;59.30;;;;;;4965029;28;89686;-63
2022/09/18 02:45:42;;;;;;;66.93;49.22;;;19.90;59.20;;;;;;4966551;28;90639;-64
2022/09/18 02:48:26;;;;;;;66.95;49.45;;;19.80;59.50;;;;;;4970263;28;91703;-66
2022/09/18 02:51:06;;;;;;;68.35;49.53;;;19.80;59.40;;;;;;4968018;28;91222;-64
2022/09/18 02:54:02;;;;;;;67.30;49.25;;;19.70;59.60;;;;;;4972238;28;89864;-64
2022/09/18 02:56:48;;;;;;;67.43;49.63;;;19.70;59.70;;;;;;4936488;28;91010;-65
2022/09/18 02:59:24;;;;;;;68.28;49.60;;;19.80;59.40;;;;;;4968128;28;89192;-57
2022/09/18 03:01:51;;;;;;;67.75;49.40;;;19.80;59.30;;;;;;4965174;28;90527;-62
2022/09/18 03:04:22;;;;;;;66.55;49.35;;;19.80;59.50;;;;;;4957655;28;90071;-65
2022/09/18 03:06:47;;;;;;;67.75;49.53;;;19.80;59.30;;;;;;4963336;28;91243;-64
2022/09/18 03:09:14;;;;;;;66.47;49.17;;;19.80;59.30;;;;;;4962261;28;90926;-64
2022/09/18 03:11:41;;;;;;;67.35;49.35;;;19.80;59.30;;;;;;4962075;28;90509;-62
2022/09/18 03:14:07;;;;;;;68.22;49.55;;;19.80;59.30;;;;;;4955490;28;90037;-63
2022/09/18 03:16:32;;;;;;;67.93;49.25;;;19.80;59.30;;;;;;4966835;28;93726;-64
2022/09/18 03:18:58;;;;;;;66.97;49.45;;;19.80;59.20;;;;;;4967513;28;90315;-64
2022/09/18 03:21:25;;;;;;;67.20;49.35;;;19.80;59.20;;;;;;4964484;28;90548;-63
2022/09/18 03:23:51;;;;;;;67.28;49.53;;;19.80;59.20;;;;;;4967395;28;90164;-63
2022/09/18 03:26:17;;;;;;;67.43;49.40;;;19.80;59.30;;;;;;4964003;28;90032;-61
2022/09/18 03:28:43;;;;;;;67.05;49.55;;;19.80;59.50;;;;;;4968526;28;93489;-64
2022/09/18 03:31:12;;;;;;;67.65;50.03;;;19.80;59.30;;;;;;4955756;28;91685;-65
2022/09/18 03:33:38;;;;;;;67.70;49.55;;;19.80;59.00;;;;;;4971682;28;91182;-63
2022/09/18 03:36:04;;;;;;;67.63;49.85;;;19.80;59.20;;;;;;4965776;28;90683;-61
2022/09/18 03:38:31;;;;;;;67.60;49.95;;;19.80;59.20;;;;;;4970328;28;90048;-62
2022/09/18 03:40:58;;;;;;;67.20;49.30;;;19.80;59.00;;;;;;4960415;28;92874;-62
2022/09/18 03:43:24;;;;;;;67.45;49.75;;;19.90;58.90;;;;;;4966889;28;90274;-60
2022/09/18 03:45:50;;;;;;;67.03;49.60;;;19.80;59.00;;;;;;4970287;28;89447;-64
2022/09/18 03:48:16;;;;;;;67.15;49.67;;;19.80;59.10;;;;;;4967016;28;89266;-64
2022/09/18 03:50:41;;;;;;;68.95;49.63;;;19.80;59.10;;;;;;4963438;28;89509;-65
2022/09/18 03:53:10;;;;;;;67.22;49.55;;;19.80;59.00;;;;;;4967718;28;93271;-63
2022/09/18 03:55:36;;;;;;;67.40;49.30;;;19.80;59.00;;;;;;4964101;28;92258;-65
2022/09/18 03:58:02;;;;;;;66.78;49.53;;;19.70;59.10;;;;;;4963060;28;89672;-65
2022/09/18 04:00:28;;;;;;;67.43;49.55;;;19.80;59.00;;;;;;4967671;28;90675;-64
2022/09/18 04:02:54;;;;;;;67.45;49.65;;;19.70;59.10;;;;;;4967204;28;89980;-65
2022/09/18 04:05:20;;;;;;;68.25;49.53;;;19.80;59.20;;;;;;4971019;28;89389;-64
2022/09/18 04:07:45;;;;;;;68.78;49.83;;;19.80;59.10;;;;;;4958740;28;89659;-65
2022/09/18 04:10:11;;;;;;;68.15;49.33;;;19.70;59.10;;;;;;4964208;28;92464;-65
2022/09/18 04:12:37;;;;;;;67.25;49.45;;;19.70;59.20;;;;;;4967370;28;92838;-65
2022/09/18 04:15:03;;;;;;;66.57;49.42;;;19.70;59.10;;;;;;4964659;28;90485;-65
2022/09/18 04:17:29;;;;;;;68.32;49.45;;;19.70;59.10;;;;;;4971256;28;89676;-64
2022/09/18 04:19:54;;;;;;;67.07;49.38;;;19.70;59.10;;;;;;4973289;28;91653;-65
2022/09/18 04:22:21;;;;;;;67.63;49.22;;;19.70;59.10;;;;;;4961250;28;90352;-63
2022/09/18 04:24:47;;;;;;;66.68;49.25;;;19.60;59.30;;;;;;4968877;28;89568;-65
2022/09/18 04:27:13;;;;;;;67.22;49.47;;;19.60;59.40;;;;;;4967698;28;89722;-62
2022/09/18 04:29:39;;;;;;;68.32;49.45;;;19.70;59.30;;;;;;4966406;28;91373;-65
2022/09/18 04:32:05;;;;;;;69.20;49.63;;;19.60;59.40;;;;;;4970591;28;90231;-65
2022/09/18 04:34:30;;;;;;;66.47;49.22;;;19.60;59.40;;;;;;4969994;28;90892;-64
2022/09/18 04:36:56;;;;;;;67.65;49.30;;;19.60;59.30;;;;;;4967562;28;88862;-65
2022/09/18 04:39:22;;;;;;;66.88;49.40;;;19.60;59.20;;;;;;4974487;28;90104;-64
2022/09/18 04:41:49;;;;;;;66.88;49.05;;;19.60;59.30;;;;;;4966256;28;89840;-64
2022/09/18 04:44:15;;;;;;;68.40;49.30;;;19.60;59.30;;;;;;4967702;28;91612;-63
2022/09/18 04:46:40;;;;;;;67.22;49.22;;;19.60;59.40;;;;;;4971175;28;89792;-65
2022/09/18 04:49:06;;;;;;;66.78;49.45;;;19.60;59.20;;;;;;4961335;28;91110;-65
2022/09/18 04:51:32;;;;;;;66.95;49.33;;;19.60;59.30;;;;;;4967493;28;89927;-65
2022/09/18 04:53:58;;;;;;;67.35;49.38;;;19.60;59.10;;;;;;4964449;28;92047;-66
2022/09/18 04:56:23;;;;;;;67.38;49.35;;;19.60;59.30;;;;;;4970256;28;90278;-65
2022/09/18 04:58:50;;;;;;;67.30;49.40;;;19.60;59.30;;;;;;4971977;28;90887;-64
2022/09/18 05:01:16;;;;;;;66.60;49.53;;;19.60;59.30;;;;;;4967293;28;89438;-65
2022/09/18 05:03:42;;;;;;;67.80;49.58;;;19.60;59.30;;;;;;4967357;28;89900;-58
2022/09/18 05:06:07;;;;;;;66.80;49.42;;;19.60;59.10;;;;;;4962805;28;90457;-65
2022/09/18 05:08:33;;;;;;;66.75;49.38;;;19.70;59.00;;;;;;4969748;28;96409;-64
2022/09/18 05:10:59;;;;;;;66.72;49.58;;;19.70;59.00;;;;;;4968275;28;90527;-64
2022/09/18 05:13:25;;;;;;;66.25;49.33;;;19.60;58.90;;;;;;4971177;28;89582;-64
2022/09/18 05:15:55;;;;;;;68.70;49.35;;;19.50;59.00;;;;;;4969708;28;90775;-65
2022/09/18 05:18:21;;;;;;;66.50;49.15;;;19.50;59.20;;;;;;4967576;28;91273;-65
2022/09/18 05:20:47;;;;;;;66.68;49.70;;;19.50;59.30;;;;;;4963770;28;89930;-63
2022/09/18 05:23:13;;;;;;;69.22;49.60;;;19.50;59.30;;;;;;4964671;28;90838;-65
2022/09/18 05:25:39;;;;;;;68.45;49.25;;;19.30;59.50;;;;;;4966526;28;88833;-65
2022/09/18 05:28:05;;;;;;;66.47;49.25;;;19.30;59.90;;;;;;4968600;28;91419;-65
2022/09/18 05:30:31;;;;;;;67.05;49.30;;;19.40;59.90;;;;;;4969543;28;89907;-65
2022/09/18 05:32:59;;;;;;;67.75;49.28;;;19.30;60.00;;;;;;4960343;28;91199;-65
2022/09/18 05:35:27;;;;;;;67.53;49.20;;;19.20;60.10;;;;;;4970770;28;89892;-64
2022/09/18 05:37:55;;;;;;;66.95;49.40;;;19.30;60.00;;;;;;4967184;28;89951;-64
2022/09/18 05:40:22;;;;;;;68.55;49.30;;;19.40;59.90;;;;;;4968514;28;90311;-65
2022/09/18 05:42:49;;;;;;;67.65;49.65;;;19.40;59.70;;;;;;4972552;28;89730;-65
2022/09/18 05:45:15;;;;;;;66.90;49.53;;;19.50;59.40;;;;;;4965384;28;89874;-65
2022/09/18 05:47:41;;;;;;;66.43;49.38;;;19.60;59.90;;;;;;4965857;28;93631;-61
2022/09/18 05:50:08;;;;;;;67.55;49.40;;;19.50;59.70;;;;;;4971112;28;92806;-65
2022/09/18 05:52:34;;;;;;;68.93;49.47;;;19.50;59.50;;;;;;4964181;28;95839;-64
2022/09/18 05:55:01;;;;;;;68.47;49.50;;;19.50;59.50;;;;;;4962245;28;90158;-65
2022/09/18 05:57:27;;;;;;;68.80;49.42;;;19.50;59.50;;;;;;4960297;28;93374;-62
2022/09/18 05:59:52;;;;;;;69.13;49.42;;;19.40;59.90;;;;;;4960154;28;89729;-64
2022/09/18 06:02:18;;;;;;;67.47;49.45;;;19.40;59.90;;;;;;4968079;28;90554;-65
2022/09/18 06:04:44;;;;;;;67.50;49.35;;;19.20;60.50;;;;;;4969927;28;90835;-64
2022/09/18 06:07:11;;;;;;;66.93;49.40;;;19.30;60.40;;;;;;4973563;28;91208;-65
2022/09/18 06:09:38;;;;;;;71.07;49.40;;;19.30;60.40;;;;;;4970626;28;91285;-65
2022/09/18 06:12:04;;;;;;;68.55;49.28;;;19.30;60.50;;;;;;4969710;28;90831;-64
2022/09/18 06:14:30;;;;;;;67.57;49.47;;;19.40;60.10;;;;;;4974450;28;89759;-64
2022/09/18 06:16:55;;;;;;;68.75;49.83;;;19.30;60.20;;;;;;4968332;28;90598;-65
2022/09/18 06:19:21;;;;;;;69.53;49.65;;;19.30;60.50;;;;;;4966421;28;95996;-56
2022/09/18 06:21:47;;;;;;;67.47;49.45;;;19.30;60.50;;;;;;4968802;28;91325;-54
2022/09/18 06:24:12;;;;;;;67.60;49.15;;;19.30;60.30;;;;;;4977987;28;89845;-56
2022/09/18 06:26:38;;;;;;;67.40;49.47;;;19.30;60.60;;;;;;4974354;28;90138;-52
2022/09/18 06:29:04;;;;;;;67.55;49.45;;;19.40;60.40;;;;;;4968116;28;89812;-55
2022/09/18 06:31:29;;;;;;;67.35;49.63;;;19.40;60.50;;;;;;4967143;28;93203;-55
2022/09/18 06:33:55;;;;;;;67.10;49.60;;;19.30;60.70;;;;;;4970612;28;89930;-54
2022/09/18 06:36:21;;;;;;;68.47;49.53;;;19.30;60.90;;;;;;4968510;28;90090;-54
2022/09/18 06:38:49;;;;;;;67.97;49.88;;;19.40;60.70;;;;;;4973212;28;90025;-55
2022/09/18 06:41:15;;;;;;;68.85;49.45;;;19.40;61.50;;;;;;4968304;28;90626;-56
2022/09/18 06:43:41;;;;;;;67.05;49.53;;;19.30;61.00;;;;;;4966328;28;90224;-54
2022/09/18 06:46:09;;;;;;;69.20;49.65;;;19.20;61.30;;;;;;4965515;28;93753;-55
2022/09/18 06:48:35;;;;;;;67.35;49.90;;;19.20;61.40;;;;;;4967073;28;91516;-53
2022/09/18 06:51:01;;;;;;;68.63;49.75;;;19.30;61.10;;;;;;4969296;28;91234;-56
2022/09/18 06:53:27;;;;;;;67.90;49.75;;;19.30;61.30;;;;;;4968692;28;89765;-51
2022/09/18 06:55:57;;;;;;;67.75;49.63;;;19.20;61.60;;;;;;4962749;28;90168;-54
2022/09/18 06:58:22;;;;;;;67.22;49.25;;;19.20;61.50;;;;;;4965803;28;91434;-53
2022/09/18 07:00:48;;;;;;;67.50;49.63;;;19.30;61.20;;;;;;4971280;28;90059;-57
2022/09/18 07:03:14;;;;;;;69.22;49.85;;;19.30;61.50;;;;;;4966081;28;89542;-54
2022/09/18 07:05:41;;;;;;;67.57;49.53;;;19.30;61.20;;;;;;4969866;28;91231;-55
2022/09/18 07:08:08;;;;;;;67.15;49.55;;;19.30;61.20;;;;;;4958953;28;92362;-52
2022/09/18 07:10:33;;;;;;;67.57;49.70;;;19.30;61.50;;;;;;4972662;28;90993;-55
2022/09/18 07:13:01;;;;;;;67.32;49.45;;;19.50;62.00;;;;;;4957627;28;89623;-55
2022/09/18 07:15:27;;;;;;;71.72;50.28;;;19.50;61.10;;;;;;4961206;28;90637;-58
2022/09/18 07:17:58;;;;;;;67.93;49.97;;;19.50;61.70;;;;;;4969821;28;93229;-54
2022/09/18 07:20:24;;;;;;;67.43;49.72;;;19.40;62.80;;;;;;4973073;28;90008;-52
2022/09/18 07:22:58;;;;;;;66.90;49.42;;;19.40;63.40;;;;;;4974530;28;90268;-55
2022/09/18 07:25:24;;;;;;;67.70;49.72;;;19.40;63.80;;;;;;4960692;28;91059;-55
2022/09/18 07:27:50;;;;;;;68.53;49.92;;;19.40;64.20;;;;;;4967119;28;90123;-53
2022/09/18 07:30:16;;;;;;;68.78;49.55;;;19.30;65.80;;;;;;4960039;28;90776;-56
2022/09/18 07:32:42;;;;;;;69.10;50.00;;;19.40;65.30;;;;;;4965491;28;90699;-56
2022/09/18 07:35:09;;;;;;;70.55;49.65;;;19.50;65.00;;;;;;4954752;28;91361;-57
2022/09/18 07:37:35;;;;;;;68.75;50.58;;;19.50;64.80;;;;;;4939044;28;97399;-56
2022/09/18 07:40:01;;;;;;;70.28;49.92;;;19.50;65.10;;;;;;4964322;28;89924;-53
2022/09/18 07:42:27;;;;;;;69.13;49.55;;;19.50;64.90;;;;;;4956723;28;89961;-52
2022/09/18 07:44:53;;;;;;;69.95;49.63;;;19.70;64.70;;;;;;4961382;28;90034;-53
2022/09/18 07:47:19;;;;;;;68.97;50.25;;;19.80;64.10;;;;;;4967551;28;92517;-57
2022/09/18 07:49:45;;;;;;;69.65;49.92;;;19.70;64.20;;;;;;4967617;28;89798;-55
2022/09/18 07:52:10;;;;;;;67.38;49.70;;;19.80;63.70;;;;;;4956499;28;89244;-53
2022/09/18 07:54:36;;;;;;;68.25;50.15;;;19.80;63.70;;;;;;4956585;28;90324;-52
2022/09/18 07:57:02;;;;;;;67.53;49.67;;;19.80;63.70;;;;;;4965005;28;94729;-55
2022/09/18 07:59:28;;;;;;;68.75;49.88;;;19.80;63.80;;;;;;4965308;28;91293;-54
2022/09/18 08:01:54;;;;;;;67.55;49.85;;;19.80;64.20;;;;;;4952213;28;91899;-57
2022/09/18 08:04:21;;;;;;;67.93;49.80;;;19.80;64.00;;;;;;4957539;28;90577;-54
2022/09/18 08:06:51;;;;;;;68.75;49.85;;;19.90;63.50;;;;;;4958197;28;89799;-53
2022/09/18 08:09:17;;;;;;;68.07;50.03;;;19.90;63.60;;;;;;4947254;28;90330;-53
2022/09/18 08:11:43;;;;;;;67.78;49.90;;;19.90;63.80;;;;;;4971899;28;95327;-51
2022/09/18 08:14:09;;;;;;;68.63;49.88;;;19.90;63.90;;;;;;4959898;28;90028;-53
2022/09/18 08:16:35;;;;;;;72.72;50.00;;;19.80;64.00;;;;;;4961969;28;92538;-52
2022/09/18 08:19:01;;;;;;;70.03;49.55;;;19.90;64.30;;;;;;4968868;28;91705;-51
2022/09/18 08:21:29;;;;;;;67.75;49.90;;;20.00;64.40;;;;;;4962155;28;89935;-52
2022/09/18 08:23:54;;;;;;;70.57;50.33;;;19.90;63.50;;;;;;4949915;28;91150;-55
2022/09/18 08:26:20;;;;;;;70.40;50.03;;;20.00;62.90;;;;;;4971731;28;90705;-53
2022/09/18 08:28:46;;;;;;;75.53;50.00;;;20.00;62.90;;;;;;4963344;28;90038;-51
2022/09/18 08:31:12;;;;;;;68.97;50.08;;;19.90;63.50;;;;;;4952768;28;94246;-51
2022/09/18 08:33:38;;;;;;;71.70;50.88;;;19.90;63.30;;;;;;4967996;28;89890;-53
2022/09/18 08:36:04;;;;;;;71.22;50.35;;;19.80;64.10;;;;;;4968215;28;89976;-52
2022/09/18 08:38:30;;;;;;;69.82;49.97;;;19.90;64.30;;;;;;4960378;28;89849;-53
2022/09/18 08:41:13;;;;;;;69.03;50.35;;;19.90;64.40;;;;;;4961829;28;91550;-53
2022/09/18 08:44:05;;;;;;;69.57;50.03;;;19.90;64.30;;;;;;4957109;28;94718;-51
2022/09/18 08:46:30;;;;;;;;;;;20.00;64.60;;;;;;4961883;28;89877;-50
2022/09/18 08:49:31;;;;;;;71.30;49.85;;;20.00;64.70;;;;;;4957784;28;92480;-56
2022/09/18 08:52:22;;;;;;;71.28;49.95;;;20.00;63.90;;;;;;4965321;28;95359;-52
2022/09/18 08:55:10;;;;;;;68.45;49.90;;;20.10;63.80;;;;;;4957392;28;91077;-48
2022/09/18 08:57:44;;;;;;;71.75;50.33;;;20.10;63.80;;;;;;4958602;28;90373;-55
2022/09/18 09:00:23;;;;;;;68.68;50.40;;;20.20;63.80;;;;;;4966240;28;98148;-51
2022/09/18 09:02:52;;;;;;;71.15;50.42;;;20.10;63.50;;;;;;4964232;28;90487;-55
2022/09/18 09:05:27;;;;;;;73.05;50.65;;;20.20;63.90;;;;;;4958462;28;91904;-50
2022/09/18 09:08:11;;;;;;;69.55;50.03;;;20.20;64.50;;;;;;4957663;28;89411;-54
2022/09/18 09:10:54;;;;;;;71.43;50.88;;;20.20;64.30;;;;;;4962503;28;89674;-54
2022/09/18 09:13:44;;;;;;;75.65;50.97;;;20.20;64.90;;;;;;4966923;28;89563;-50
2022/09/18 09:16:15;;;;;;;75.65;51.10;;;20.20;64.70;;;;;;4960172;28;92209;-52
2022/09/18 09:18:59;;;;;;;78.63;51.55;;;20.20;64.70;;;;;;4953622;28;91513;-54
2022/09/18 09:21:49;;;;;;;75.35;51.13;;;20.20;65.00;;;;;;4964415;28;90880;-53
2022/09/18 09:24:32;;;;;;;76.25;51.42;;;20.30;64.30;;;;;;4964627;28;90112;-53
2022/09/18 09:27:07;;;;;;;76.18;51.67;;;20.30;64.30;;;;;;4965992;28;91120;-54
2022/09/18 09:29:38;;;;;;;77.78;52.00;;;20.30;64.90;;;;;;4965120;28;92408;-52
2022/09/18 09:32:18;;;;;;;77.18;51.80;;;20.30;65.30;;;;;;4958590;28;91298;-55
2022/09/18 09:34:51;;;;;;;77.00;51.65;;;20.30;65.90;;;;;;4965899;28;89409;-50
2022/09/18 09:37:23;;;;;;;74.40;51.38;;;20.30;65.30;;;;;;4959789;28;91965;-51
2022/09/18 09:40:15;;;;;;;77.63;52.47;;;20.30;65.10;;;;;;4969904;28;90721;-55
2022/09/18 09:42:51;;;;;;;74.35;51.90;;;20.40;64.30;;;;;;4966521;28;91014;-54
2022/09/18 09:45:27;;;;;;;76.72;51.33;;;20.30;65.10;;;;;;4973296;28;89759;-53
2022/09/18 09:48:15;;;;;;;75.20;51.28;;;20.40;64.90;;;;;;4973751;28;91985;-50
2022/09/18 09:50:57;;;;;;;75.00;51.40;;;20.40;64.70;;;;;;4972173;28;90024;-54
2022/09/18 09:53:25;;;;;;;75.90;51.13;;;20.40;63.90;;;;;;4973546;28;89989;-51
2022/09/18 09:55:59;;;;;;;74.10;50.90;;;20.30;64.60;;;;;;4969171;28;91436;-52
2022/09/18 09:58:37;;;;;;;72.25;51.22;;;20.30;64.20;;;;;;4961677;28;89876;-54
2022/09/18 10:01:25;;;;;;;70.85;51.03;;;20.40;64.00;;;;;;4968416;28;95478;-57
2022/09/18 10:04:15;;;;;;;74.05;51.38;;;20.40;64.00;;;;;;4962787;28;89898;-57
2022/09/18 10:07:04;;;;;;;72.22;50.55;;;20.40;64.20;;;;;;4968734;28;90090;-52
2022/09/18 10:09:57;;;;;;;73.55;51.03;;;20.40;63.80;;;;;;4974613;28;91116;-48
2022/09/18 10:12:43;;;;;;;71.05;51.17;;;20.30;63.70;;;;;;4971311;28;90454;-50
2022/09/18 10:15:25;;;;;;;70.93;50.92;;;20.40;64.10;;;;;;4974145;28;89788;-50
2022/09/18 10:17:56;;;;;;;76.70;51.03;;;20.40;63.40;;;;;;4968347;28;89892;-54
2022/09/18 10:20:26;;;;;;;73.40;50.95;;;20.40;63.90;;;;;;4968133;28;91604;-50
2022/09/18 10:22:54;;;;;;;74.55;51.30;;;20.40;63.20;;;;;;4967524;28;89884;-52
2022/09/18 10:25:45;;;;;;;72.75;50.92;;;20.40;63.60;;;;;;4969847;28;92112;-53
2022/09/18 10:28:14;;;;;;;71.03;50.65;;;20.40;63.30;;;;;;4967430;28;90174;-53
2022/09/18 10:31:00;;;;;;;75.13;51.15;;;20.30;62.90;;;;;;4963594;28;90857;-51
2022/09/18 10:33:38;;;;;;;73.78;51.70;;;20.40;63.10;;;;;;4971612;28;93334;-51
2022/09/18 10:36:12;;;;;;;71.55;51.03;;;20.40;63.30;;;;;;4975919;28;90839;-54
2022/09/18 10:38:38;;;;;;;71.97;51.17;;;20.40;63.20;;;;;;4977588;28;89659;-49
2022/09/18 10:41:16;;;;;;;70.45;50.83;;;20.40;63.10;;;;;;4969997;28;93592;-50
2022/09/18 10:44:18;;;;;;;73.00;51.13;;;20.40;62.90;;;;;;4967269;28;90208;-52
2022/09/18 10:47:18;;;;;;;71.82;50.78;;;20.40;62.80;;;;;;4969633;28;91482;-53
2022/09/18 10:50:10;;;;;;;72.88;51.45;;;20.40;62.80;;;;;;4967863;28;89758;-52
2022/09/18 10:52:46;;;;;;;73.03;50.88;;;20.50;63.00;;;;;;4969479;28;90849;-51
2022/09/18 10:55:25;;;;;;;71.97;50.97;;;20.50;62.60;;;;;;4961164;28;89870;-52
2022/09/18 10:57:56;;;;;;;73.20;50.78;;;20.50;62.90;;;;;;4965689;28;89784;-52
2022/09/18 11:00:23;;;;;;;72.65;50.95;;;20.50;62.50;;;;;;4968701;28;90105;-51
2022/09/18 11:03:06;;;;;;;73.55;51.17;;;20.50;62.60;;;;;;4968122;28;91538;-54
2022/09/18 11:05:36;;;;;;;71.68;50.85;;;20.50;62.40;;;;;;4975155;28;91000;-51
2022/09/18 11:08:18;;;;;;;72.53;50.95;;;20.50;62.30;;;;;;4976046;28;89947;-54
2022/09/18 11:10:49;;;;;;;72.70;51.25;;;20.60;62.30;;;;;;4966992;28;90118;-52
2022/09/18 11:13:23;;;;;;;75.13;51.30;;;20.50;62.10;;;;;;4969880;28;89967;-50
2022/09/18 11:15:54;;;;;;;71.47;51.03;;;20.60;62.30;;;;;;4966352;28;90173;-51
2022/09/18 11:18:22;;;;;;;70.35;50.85;;;20.60;62.20;;;;;;4972640;28;89892;-50
2022/09/18 11:20:49;;;;;;;70.15;50.55;;;20.60;62.20;;;;;;4974252;28;93834;-52
2022/09/18 11:23:21;;;;;;;71.80;51.08;;;20.60;62.20;;;;;;4962327;28;92920;-53
2022/09/18 11:25:47;;;;;;;71.68;51.47;;;20.70;61.90;;;;;;4968373;28;90040;-53
2022/09/18 11:28:25;;;;;;;70.93;50.80;;;20.70;61.90;;;;;;4973730;28;91059;-50
2022/09/18 11:30:58;;;;;;;71.07;50.80;;;20.60;62.00;;;;;;4972341;28;90683;-55
2022/09/18 11:33:34;;;;;;;70.93;50.85;;;20.70;62.00;;;;;;4972837;28;89955;-52
2022/09/18 11:36:04;;;;;;;70.97;50.67;;;20.70;62.00;;;;;;4964992;28;92355;-49
2022/09/18 11:38:30;;;;;;;72.07;50.90;;;20.70;61.70;;;;;;4963214;28;91095;-51
2022/09/18 11:40:58;;;;;;;71.82;50.67;;;20.70;62.00;;;;;;4971232;28;91882;-51
2022/09/18 11:43:35;;;;;;;70.63;50.72;;;20.70;61.60;;;;;;4965701;28;90419;-50
2022/09/18 11:46:36;;;;;;;70.95;50.92;;;20.70;61.60;;;;;;4968620;28;90456;-51
2022/09/18 11:49:24;;;;;;;71.38;50.97;;;20.70;61.70;;;;;;4966385;28;90084;-54
2022/09/18 11:52:02;;;;;;;71.75;50.97;;;20.70;61.40;;;;;;4972353;28;90181;-50
2022/09/18 11:54:46;;;;;;;71.25;50.80;;;20.70;61.40;;;;;;4970548;28;92052;-52
2022/09/18 11:57:40;;;;;;;70.85;50.63;;;20.70;61.40;;;;;;4964385;28;91066;-53
2022/09/18 12:00:15;;;;;;;72.15;50.85;;;20.80;61.50;;;;;;4950490;28;90007;-53
2022/09/18 12:03:07;;;;;;;70.72;50.55;;;20.80;61.30;;;;;;4976370;28;89711;-50
2022/09/18 12:05:50;;;;;;;70.38;50.63;;;20.80;61.20;;;;;;4969450;28;90718;-51
2022/09/18 12:08:32;;;;;;;72.28;50.78;;;20.80;61.10;;;;;;4966193;28;91280;-52
2022/09/18 12:11:13;;;;;;;72.32;50.78;;;20.80;61.10;;;;;;4963381;28;90001;-54
2022/09/18 12:13:49;;;;;;;70.18;50.80;;;20.80;61.20;;;;;;4967067;28;89327;-54
2022/09/18 12:16:23;;;;;;;70.40;50.95;;;20.80;60.90;;;;;;4973586;28;89598;-52
2022/09/18 12:18:56;;;;;;;70.45;50.85;;;20.80;60.90;;;;;;4969173;28;90644;-56
2022/09/18 12:21:33;;;;;;;71.22;50.92;;;20.80;60.90;;;;;;4962683;28;92544;-51
2022/09/18 12:23:58;;;;;;;70.60;50.88;;;20.80;60.80;;;;;;4972215;28;90125;-53
2022/09/18 12:26:39;;;;;;;71.25;51.10;;;20.80;60.60;;;;;;4966203;28;90424;-53
2022/09/18 12:29:22;;;;;;;72.32;50.90;;;20.80;60.50;;;;;;4956349;28;91878;-52
2022/09/18 12:32:03;;;;;;;70.75;50.47;;;20.80;60.50;;;;;;4968373;28;90145;-54
2022/09/18 12:34:58;;;;;;;70.25;50.55;;;20.80;60.30;;;;;;4965136;28;93331;-51
2022/09/18 12:37:38;;;;;;;71.05;50.92;;;20.80;60.40;;;;;;4973009;28;90011;-53
2022/09/18 12:40:15;;;;;;;70.55;50.75;;;20.80;60.40;;;;;;4971232;28;89670;-53
2022/09/18 12:43:21;;;;;;;69.97;50.55;;;20.80;60.40;;;;;;4967356;28;90009;-54
2022/09/18 12:46:25;;;;;;;71.30;50.75;;;20.80;60.10;;;;;;4975539;28;90107;-54
2022/09/18 12:49:07;;;;;;;71.32;50.90;;;20.80;60.10;;;;;;4966665;28;94395;-56
2022/09/18 12:51:47;;;;;;;69.80;50.72;;;20.80;60.30;;;;;;4970749;28;90198;-56
2022/09/18 12:54:31;;;;;;;71.43;50.88;;;20.80;60.20;;;;;;4966916;28;89655;-53